sensor_id;sensor_type;location;lat;lon;timestamp;temperature;humidity
65396;HTU21D;52004;45.136;39.010;2022-08-21T00:00:08;25.65;63.08
65396;HTU21D;52004;45.136;39.010;2022-08-21T00:02:43;25.62;63.09
65396;HTU21D;52004;45.136;39.010;2022-08-21T00:05:10;25.61;63.12
65396;HTU21D;52004;45.136;39.010;2022-08-21T00:07:36;25.60;63.15
65396;HTU21D;52004;45.136;39.010;2022-08-21T00:10:03;25.57;63.19
65396;HTU21D;52004;45.136;39.010;2022-08-21T00:12:29;25.56;63.21
65396;HTU21D;52004;45.136;39.010;2022-08-21T00:14:56;25.53;63.21
65396;HTU21D;52004;45.136;39.010;2022-08-21T00:17:22;25.51;63.23
65396;HTU21D;52004;45.136;39.010;2022-08-21T00:19:48;25.49;63.23
65396;HTU21D;52004;45.136;39.010;2022-08-21T00:22:14;25.47;63.26
65396;HTU21D;52004;45.136;39.010;2022-08-21T00:24:40;25.43;63.27
65396;HTU21D;52004;45.136;39.010;2022-08-21T00:27:06;25.39;63.30
65396;HTU21D;52004;45.136;39.010;2022-08-21T00:29:32;25.33;63.37
65396;HTU21D;52004;45.136;39.010;2022-08-21T00:31:58;25.29;63.44
65396;HTU21D;52004;45.136;39.010;2022-08-21T00:34:24;25.24;63.47
65396;HTU21D;52004;45.136;39.010;2022-08-21T00:36:50;25.19;63.54
65396;HTU21D;52004;45.136;39.010;2022-08-21T00:39:16;25.16;63.59
65396;HTU21D;52004;45.136;39.010;2022-08-21T00:41:42;25.14;63.64
65396;HTU21D;52004;45.136;39.010;2022-08-21T00:44:09;25.12;63.67
65396;HTU21D;52004;45.136;39.010;2022-08-21T00:46:36;25.08;63.71
65396;HTU21D;52004;45.136;39.010;2022-08-21T00:49:03;25.05;63.73
65396;HTU21D;52004;45.136;39.010;2022-08-21T00:51:35;25.03;63.76
65396;HTU21D;52004;45.136;39.010;2022-08-21T00:54:02;25.02;63.79
65396;HTU21D;52004;45.136;39.010;2022-08-21T00:56:28;25.00;63.81
65396;HTU21D;52004;45.136;39.010;2022-08-21T00:58:54;24.98;63.83
65396;HTU21D;52004;45.136;39.010;2022-08-21T01:01:21;24.97;63.85
65396;HTU21D;52004;45.136;39.010;2022-08-21T01:03:47;24.93;63.88
65396;HTU21D;52004;45.136;39.010;2022-08-21T01:06:13;24.91;63.92
65396;HTU21D;52004;45.136;39.010;2022-08-21T01:08:39;24.89;63.98
65396;HTU21D;52004;45.136;39.010;2022-08-21T01:11:05;24.89;64.01
65396;HTU21D;52004;45.136;39.010;2022-08-21T01:13:34;24.87;64.05
65396;HTU21D;52004;45.136;39.010;2022-08-21T01:16:00;24.86;64.06
65396;HTU21D;52004;45.136;39.010;2022-08-21T01:18:28;24.84;64.08
65396;HTU21D;52004;45.136;39.010;2022-08-21T01:23:23;24.79;64.11
65396;HTU21D;52004;45.136;39.010;2022-08-21T01:25:49;24.77;64.16
65396;HTU21D;52004;45.136;39.010;2022-08-21T01:28:15;24.72;64.21
65396;HTU21D;52004;45.136;39.010;2022-08-21T01:30:42;24.69;64.28
65396;HTU21D;52004;45.136;39.010;2022-08-21T01:33:08;24.65;64.35
65396;HTU21D;52004;45.136;39.010;2022-08-21T01:35:34;24.62;64.39
65396;HTU21D;52004;45.136;39.010;2022-08-21T01:38:00;24.61;64.44
65396;HTU21D;52004;45.136;39.010;2022-08-21T01:40:26;24.60;64.47
65396;HTU21D;52004;45.136;39.010;2022-08-21T01:42:52;24.60;64.47
65396;HTU21D;52004;45.136;39.010;2022-08-21T01:45:18;24.59;64.43
65396;HTU21D;52004;45.136;39.010;2022-08-21T01:47:44;24.56;64.44
65396;HTU21D;52004;45.136;39.010;2022-08-21T01:50:11;24.55;64.46
65396;HTU21D;52004;45.136;39.010;2022-08-21T01:52:38;24.55;64.48
65396;HTU21D;52004;45.136;39.010;2022-08-21T01:55:04;24.54;64.49
65396;HTU21D;52004;45.136;39.010;2022-08-21T01:57:31;24.55;64.48
65396;HTU21D;52004;45.136;39.010;2022-08-21T01:59:58;24.54;64.47
65396;HTU21D;52004;45.136;39.010;2022-08-21T02:02:24;24.54;64.47
65396;HTU21D;52004;45.136;39.010;2022-08-21T02:04:50;24.53;64.47
65396;HTU21D;52004;45.136;39.010;2022-08-21T02:07:16;24.53;64.47
65396;HTU21D;52004;45.136;39.010;2022-08-21T02:09:42;24.53;64.45
65396;HTU21D;52004;45.136;39.010;2022-08-21T02:12:09;24.53;64.45
65396;HTU21D;52004;45.136;39.010;2022-08-21T02:14:35;24.55;64.42
65396;HTU21D;52004;45.136;39.010;2022-08-21T02:17:01;24.57;64.37
65396;HTU21D;52004;45.136;39.010;2022-08-21T02:19:28;24.58;64.32
65396;HTU21D;52004;45.136;39.010;2022-08-21T02:21:54;24.58;64.30
65396;HTU21D;52004;45.136;39.010;2022-08-21T02:24:20;24.59;64.28
65396;HTU21D;52004;45.136;39.010;2022-08-21T02:26:46;24.59;64.25
65396;HTU21D;52004;45.136;39.010;2022-08-21T02:29:12;24.59;64.23
65396;HTU21D;52004;45.136;39.010;2022-08-21T02:31:38;24.59;64.19
65396;HTU21D;52004;45.136;39.010;2022-08-21T02:34:04;24.58;64.16
65396;HTU21D;52004;45.136;39.010;2022-08-21T02:36:30;24.56;64.15
65396;HTU21D;52004;45.136;39.010;2022-08-21T02:38:56;24.55;64.17
65396;HTU21D;52004;45.136;39.010;2022-08-21T02:41:22;24.50;64.18
65396;HTU21D;52004;45.136;39.010;2022-08-21T02:43:49;24.48;64.18
65396;HTU21D;52004;45.136;39.010;2022-08-21T02:46:16;24.47;64.20
65396;HTU21D;52004;45.136;39.010;2022-08-21T02:48:43;24.45;64.21
65396;HTU21D;52004;45.136;39.010;2022-08-21T02:51:11;24.45;64.18
65396;HTU21D;52004;45.136;39.010;2022-08-21T02:53:38;24.45;64.16
65396;HTU21D;52004;45.136;39.010;2022-08-21T02:56:05;24.45;64.14
65396;HTU21D;52004;45.136;39.010;2022-08-21T02:58:33;24.44;64.12
65396;HTU21D;52004;45.136;39.010;2022-08-21T03:01:00;24.44;64.11
65396;HTU21D;52004;45.136;39.010;2022-08-21T03:03:27;24.45;64.09
65396;HTU21D;52004;45.136;39.010;2022-08-21T03:05:54;24.45;64.08
65396;HTU21D;52004;45.136;39.010;2022-08-21T03:08:20;24.44;64.05
65396;HTU21D;52004;45.136;39.010;2022-08-21T03:10:47;24.45;64.03
65396;HTU21D;52004;45.136;39.010;2022-08-21T03:13:14;24.47;64.01
65396;HTU21D;52004;45.136;39.010;2022-08-21T03:15:40;24.46;63.98
65396;HTU21D;52004;45.136;39.010;2022-08-21T03:18:07;24.47;63.98
65396;HTU21D;52004;45.136;39.010;2022-08-21T03:20:34;24.47;63.96
65396;HTU21D;52004;45.136;39.010;2022-08-21T03:23:00;24.48;63.94
65396;HTU21D;52004;45.136;39.010;2022-08-21T03:25:28;24.49;63.92
65396;HTU21D;52004;45.136;39.010;2022-08-21T03:27:57;24.51;63.92
65396;HTU21D;52004;45.136;39.010;2022-08-21T03:30:23;24.51;63.89
65396;HTU21D;52004;45.136;39.010;2022-08-21T03:32:50;24.53;63.88
65396;HTU21D;52004;45.136;39.010;2022-08-21T03:35:16;24.54;63.87
65396;HTU21D;52004;45.136;39.010;2022-08-21T03:37:43;24.56;63.85
65396;HTU21D;52004;45.136;39.010;2022-08-21T03:40:09;24.58;63.87
65396;HTU21D;52004;45.136;39.010;2022-08-21T03:42:36;24.63;63.82
65396;HTU21D;52004;45.136;39.010;2022-08-21T03:45:02;24.66;63.77
65396;HTU21D;52004;45.136;39.010;2022-08-21T03:47:28;24.68;63.74
65396;HTU21D;52004;45.136;39.010;2022-08-21T03:49:54;24.70;63.71
65396;HTU21D;52004;45.136;39.010;2022-08-21T03:52:20;24.71;63.70
65396;HTU21D;52004;45.136;39.010;2022-08-21T03:54:46;24.72;63.66
65396;HTU21D;52004;45.136;39.010;2022-08-21T03:57:12;24.73;63.62
65396;HTU21D;52004;45.136;39.010;2022-08-21T03:59:38;24.73;63.62
65396;HTU21D;52004;45.136;39.010;2022-08-21T04:02:09;24.71;63.61
65396;HTU21D;52004;45.136;39.010;2022-08-21T04:04:35;24.70;63.62
65396;HTU21D;52004;45.136;39.010;2022-08-21T04:07:02;24.69;63.63
65396;HTU21D;52004;45.136;39.010;2022-08-21T04:09:28;24.66;63.62
65396;HTU21D;52004;45.136;39.010;2022-08-21T04:11:55;24.63;63.62
65396;HTU21D;52004;45.136;39.010;2022-08-21T04:14:21;24.63;63.67
65396;HTU21D;52004;45.136;39.010;2022-08-21T04:16:48;24.64;63.66
65396;HTU21D;52004;45.136;39.010;2022-08-21T04:19:13;24.64;63.64
65396;HTU21D;52004;45.136;39.010;2022-08-21T04:21:40;24.66;63.63
65396;HTU21D;52004;45.136;39.010;2022-08-21T04:24:07;24.65;63.61
65396;HTU21D;52004;45.136;39.010;2022-08-21T04:26:33;24.64;63.60
65396;HTU21D;52004;45.136;39.010;2022-08-21T04:29:00;24.65;63.62
65396;HTU21D;52004;45.136;39.010;2022-08-21T04:31:26;24.68;63.63
65396;HTU21D;52004;45.136;39.010;2022-08-21T04:33:54;24.72;63.55
65396;HTU21D;52004;45.136;39.010;2022-08-21T04:36:20;24.73;63.50
65396;HTU21D;52004;45.136;39.010;2022-08-21T04:38:46;24.71;63.48
65396;HTU21D;52004;45.136;39.010;2022-08-21T04:41:12;24.68;63.48
65396;HTU21D;52004;45.136;39.010;2022-08-21T04:43:38;24.69;63.57
65396;HTU21D;52004;45.136;39.010;2022-08-21T04:46:04;24.73;63.64
65396;HTU21D;52004;45.136;39.010;2022-08-21T04:48:31;24.85;63.63
65396;HTU21D;52004;45.136;39.010;2022-08-21T04:53:32;25.10;63.44
65396;HTU21D;52004;45.136;39.010;2022-08-21T04:56:01;25.21;63.34
65396;HTU21D;52004;45.136;39.010;2022-08-21T04:58:27;25.27;63.29
65396;HTU21D;52004;45.136;39.010;2022-08-21T05:00:56;25.35;63.17
65396;HTU21D;52004;45.136;39.010;2022-08-21T05:03:23;0.00;63.03
65396;HTU21D;52004;45.136;39.010;2022-08-21T05:05:49;25.32;63.05
65396;HTU21D;52004;45.136;39.010;2022-08-21T05:08:17;25.30;63.08
65396;HTU21D;52004;45.136;39.010;2022-08-21T05:10:44;25.29;63.07
65396;HTU21D;52004;45.136;39.010;2022-08-21T05:13:10;25.30;63.17
65396;HTU21D;52004;45.136;39.010;2022-08-21T05:15:38;25.35;63.18
65396;HTU21D;52004;45.136;39.010;2022-08-21T05:18:04;25.44;63.17
65396;HTU21D;52004;45.136;39.010;2022-08-21T05:20:30;25.50;63.07
65396;HTU21D;52004;45.136;39.010;2022-08-21T05:22:56;25.57;63.04
65396;HTU21D;52004;45.136;39.010;2022-08-21T05:25:22;25.62;62.99
65396;HTU21D;52004;45.136;39.010;2022-08-21T05:27:48;25.68;62.98
65396;HTU21D;52004;45.136;39.010;2022-08-21T05:30:14;25.77;62.98
65396;HTU21D;52004;45.136;39.010;2022-08-21T05:32:40;25.87;63.05
65396;HTU21D;52004;45.136;39.010;2022-08-21T05:35:06;25.99;63.02
65396;HTU21D;52004;45.136;39.010;2022-08-21T05:37:32;26.13;63.02
65396;HTU21D;52004;45.136;39.010;2022-08-21T05:39:59;26.27;62.87
65396;HTU21D;52004;45.136;39.010;2022-08-21T05:42:25;26.38;62.83
65396;HTU21D;52004;45.136;39.010;2022-08-21T05:44:51;26.49;62.86
65396;HTU21D;52004;45.136;39.010;2022-08-21T05:47:17;26.63;62.76
65396;HTU21D;52004;45.136;39.010;2022-08-21T05:49:43;26.73;62.66
65396;HTU21D;52004;45.136;39.010;2022-08-21T05:52:08;26.85;62.61
65396;HTU21D;52004;45.136;39.010;2022-08-21T05:54:35;26.93;62.47
65396;HTU21D;52004;45.136;39.010;2022-08-21T05:57:02;27.02;62.44
65396;HTU21D;52004;45.136;39.010;2022-08-21T05:59:28;27.09;62.35
65396;HTU21D;52004;45.136;39.010;2022-08-21T06:01:54;27.13;62.19
65396;HTU21D;52004;45.136;39.010;2022-08-21T06:04:20;27.16;62.19
65396;HTU21D;52004;45.136;39.010;2022-08-21T06:06:46;27.25;62.22
65396;HTU21D;52004;45.136;39.010;2022-08-21T06:09:13;27.32;62.17
65396;HTU21D;52004;45.136;39.010;2022-08-21T06:11:39;27.43;62.22
65396;HTU21D;52004;45.136;39.010;2022-08-21T06:14:05;27.56;62.20
65396;HTU21D;52004;45.136;39.010;2022-08-21T06:16:32;27.67;62.03
65396;HTU21D;52004;45.136;39.010;2022-08-21T06:18:58;27.78;62.04
65396;HTU21D;52004;45.136;39.010;2022-08-21T06:21:24;27.87;61.89
65396;HTU21D;52004;45.136;39.010;2022-08-21T06:23:50;0.00;61.74
65396;HTU21D;52004;45.136;39.010;2022-08-21T06:26:16;27.99;61.76
65396;HTU21D;52004;45.136;39.010;2022-08-21T06:28:42;28.06;61.64
65396;HTU21D;52004;45.136;39.010;2022-08-21T06:31:16;28.10;61.51
65396;HTU21D;52004;45.136;39.010;2022-08-21T06:33:42;28.12;61.45
65396;HTU21D;52004;45.136;39.010;2022-08-21T06:36:08;28.14;61.54
65396;HTU21D;52004;45.136;39.010;2022-08-21T06:38:35;28.24;61.63
65396;HTU21D;52004;45.136;39.010;2022-08-21T06:41:01;28.33;61.58
65396;HTU21D;52004;45.136;39.010;2022-08-21T06:43:27;28.42;61.41
65396;HTU21D;52004;45.136;39.010;2022-08-21T06:45:53;0.00;61.44
65396;HTU21D;52004;45.136;39.010;2022-08-21T06:48:19;28.60;61.41
65396;HTU21D;52004;45.136;39.010;2022-08-21T06:50:46;28.70;61.34
65396;HTU21D;52004;45.136;39.010;2022-08-21T06:53:15;28.80;61.35
65396;HTU21D;52004;45.136;39.010;2022-08-21T06:55:41;28.92;61.25
65396;HTU21D;52004;45.136;39.010;2022-08-21T06:58:08;29.02;61.22
65396;HTU21D;52004;45.136;39.010;2022-08-21T07:00:34;29.11;61.03
65396;HTU21D;52004;45.136;39.010;2022-08-21T07:03:00;29.17;60.93
65396;HTU21D;52004;45.136;39.010;2022-08-21T07:05:27;29.21;60.88
65396;HTU21D;52004;45.136;39.010;2022-08-21T07:07:54;29.28;60.88
65396;HTU21D;52004;45.136;39.010;2022-08-21T07:10:20;29.36;60.94
65396;HTU21D;52004;45.136;39.010;2022-08-21T07:12:46;29.45;60.75
65396;HTU21D;52004;45.136;39.010;2022-08-21T07:15:12;0.00;60.80
65396;HTU21D;52004;45.136;39.010;2022-08-21T07:17:38;29.59;60.61
65396;HTU21D;52004;45.136;39.010;2022-08-21T07:20:04;29.60;60.62
65396;HTU21D;52004;45.136;39.010;2022-08-21T07:22:30;0.00;60.66
65396;HTU21D;52004;45.136;39.010;2022-08-21T07:24:56;29.67;60.68
65396;HTU21D;52004;45.136;39.010;2022-08-21T07:27:22;29.74;60.61
65396;HTU21D;52004;45.136;39.010;2022-08-21T07:29:48;29.80;60.58
65396;HTU21D;52004;45.136;39.010;2022-08-21T07:32:14;29.86;60.53
65396;HTU21D;52004;45.136;39.010;2022-08-21T07:34:40;29.89;60.46
65396;HTU21D;52004;45.136;39.010;2022-08-21T07:37:06;29.91;60.41
65396;HTU21D;52004;45.136;39.010;2022-08-21T07:39:32;29.92;60.38
65396;HTU21D;52004;45.136;39.010;2022-08-21T07:41:58;29.94;60.39
65396;HTU21D;52004;45.136;39.010;2022-08-21T07:44:24;29.96;60.37
65396;HTU21D;52004;45.136;39.010;2022-08-21T07:46:50;29.98;60.35
65396;HTU21D;52004;45.136;39.010;2022-08-21T07:49:16;30.03;60.40
65396;HTU21D;52004;45.136;39.010;2022-08-21T07:51:42;30.09;60.41
65396;HTU21D;52004;45.136;39.010;2022-08-21T07:54:08;30.20;60.41
65396;HTU21D;52004;45.136;39.010;2022-08-21T07:56:34;30.36;60.36
65396;HTU21D;52004;45.136;39.010;2022-08-21T07:59:00;30.49;60.33
65396;HTU21D;52004;45.136;39.010;2022-08-21T08:01:28;30.64;60.29
65396;HTU21D;52004;45.136;39.010;2022-08-21T08:03:54;30.79;60.19
65396;HTU21D;52004;45.136;39.010;2022-08-21T08:06:20;30.92;59.93
65396;HTU21D;52004;45.136;39.010;2022-08-21T08:08:46;31.04;59.88
65396;HTU21D;52004;45.136;39.010;2022-08-21T08:11:12;31.15;59.83
65396;HTU21D;52004;45.136;39.010;2022-08-21T08:13:41;31.26;59.72
65396;HTU21D;52004;45.136;39.010;2022-08-21T08:16:08;31.38;59.69
65396;HTU21D;52004;45.136;39.010;2022-08-21T08:18:34;31.50;59.59
65396;HTU21D;52004;45.136;39.010;2022-08-21T08:21:00;31.57;59.41
65396;HTU21D;52004;45.136;39.010;2022-08-21T08:23:26;31.67;59.38
65396;HTU21D;52004;45.136;39.010;2022-08-21T08:25:52;0.00;59.34
65396;HTU21D;52004;45.136;39.010;2022-08-21T08:28:18;31.86;59.28
65396;HTU21D;52004;45.136;39.010;2022-08-21T08:30:45;31.95;59.03
65396;HTU21D;52004;45.136;39.010;2022-08-21T08:33:12;31.99;59.05
65396;HTU21D;52004;45.136;39.010;2022-08-21T08:35:38;32.08;59.12
65396;HTU21D;52004;45.136;39.010;2022-08-21T08:38:05;32.19;59.02
65396;HTU21D;52004;45.136;39.010;2022-08-21T08:43:10;32.38;58.77
65396;HTU21D;52004;45.136;39.010;2022-08-21T08:45:38;32.48;58.77
65396;HTU21D;52004;45.136;39.010;2022-08-21T08:48:05;0.00;58.68
65396;HTU21D;52004;45.136;39.010;2022-08-21T08:50:38;0.00;58.43
65396;HTU21D;52004;45.136;39.010;2022-08-21T08:53:06;32.67;58.22
65396;HTU21D;52004;45.136;39.010;2022-08-21T08:57:58;32.73;58.34
65396;HTU21D;52004;45.136;39.010;2022-08-21T09:00:24;32.84;58.29
65396;HTU21D;52004;45.136;39.010;2022-08-21T09:03:14;32.96;58.24
65396;HTU21D;52004;45.136;39.010;2022-08-21T09:06:04;33.04;58.21
65396;HTU21D;52004;45.136;39.010;2022-08-21T09:14:14;33.38;57.91
65396;HTU21D;52004;45.136;39.010;2022-08-21T09:19:04;33.50;57.68
65396;HTU21D;52004;45.136;39.010;2022-08-21T09:26:31;33.73;57.55
65396;HTU21D;52004;45.136;39.010;2022-08-21T09:29:01;33.81;57.54
65396;HTU21D;52004;45.136;39.010;2022-08-21T09:33:57;0.00;57.31
65396;HTU21D;52004;45.136;39.010;2022-08-21T09:36:37;34.04;57.23
65396;HTU21D;52004;45.136;39.010;2022-08-21T09:39:04;34.14;57.20
65396;HTU21D;52004;45.136;39.010;2022-08-21T09:41:31;34.19;56.97
65396;HTU21D;52004;45.136;39.010;2022-08-21T09:43:57;34.22;56.98
65396;HTU21D;52004;45.136;39.010;2022-08-21T09:46:24;34.30;56.88
65396;HTU21D;52004;45.136;39.010;2022-08-21T09:48:52;34.32;56.77
65396;HTU21D;52004;45.136;39.010;2022-08-21T09:51:20;34.35;56.71
65396;HTU21D;52004;45.136;39.010;2022-08-21T09:53:58;34.37;56.68
65396;HTU21D;52004;45.136;39.010;2022-08-21T09:56:30;34.44;56.68
65396;HTU21D;52004;45.136;39.010;2022-08-21T09:59:17;34.49;56.53
65396;HTU21D;52004;45.136;39.010;2022-08-21T10:01:44;34.53;56.52
65396;HTU21D;52004;45.136;39.010;2022-08-21T10:04:11;34.61;56.36
65396;HTU21D;52004;45.136;39.010;2022-08-21T10:06:37;34.62;56.28
65396;HTU21D;52004;45.136;39.010;2022-08-21T10:09:10;34.67;56.28
65396;HTU21D;52004;45.136;39.010;2022-08-21T10:11:37;34.73;56.20
65396;HTU21D;52004;45.136;39.010;2022-08-21T10:21:59;34.96;55.77
65396;HTU21D;52004;45.136;39.010;2022-08-21T10:24:31;34.95;55.65
65396;HTU21D;52004;45.136;39.010;2022-08-21T10:29:47;34.90;55.58
65396;HTU21D;52004;45.136;39.010;2022-08-21T10:43:04;0.00;55.26
65396;HTU21D;52004;45.136;39.010;2022-08-21T10:45:39;35.18;55.20
65396;HTU21D;52004;45.136;39.010;2022-08-21T10:48:07;35.20;55.18
65396;HTU21D;52004;45.136;39.010;2022-08-21T10:50:42;35.23;55.13
65396;HTU21D;52004;45.136;39.010;2022-08-21T10:58:29;35.39;54.99
65396;HTU21D;52004;45.136;39.010;2022-08-21T11:01:00;35.44;54.91
65396;HTU21D;52004;45.136;39.010;2022-08-21T11:03:33;35.48;54.73
65396;HTU21D;52004;45.136;39.010;2022-08-21T11:06:06;35.45;54.59
65396;HTU21D;52004;45.136;39.010;2022-08-21T11:08:39;35.40;54.59
65396;HTU21D;52004;45.136;39.010;2022-08-21T11:11:08;35.40;54.65
65396;HTU21D;52004;45.136;39.010;2022-08-21T11:13:55;35.42;54.68
65396;HTU21D;52004;45.136;39.010;2022-08-21T11:21:32;35.62;54.46
65396;HTU21D;52004;45.136;39.010;2022-08-21T11:24:17;35.66;54.24
65396;HTU21D;52004;45.136;39.010;2022-08-21T11:26:52;35.65;54.25
65396;HTU21D;52004;45.136;39.010;2022-08-21T11:29:44;35.63;54.05
65396;HTU21D;52004;45.136;39.010;2022-08-21T11:40:40;0.00;54.15
65396;HTU21D;52004;45.136;39.010;2022-08-21T11:45:54;0.00;54.03
65396;HTU21D;52004;45.136;39.010;2022-08-21T11:48:27;35.66;53.97
65396;HTU21D;52004;45.136;39.010;2022-08-21T11:50:56;35.68;53.88
65396;HTU21D;52004;45.136;39.010;2022-08-21T11:53:46;0.00;53.85
65396;HTU21D;52004;45.136;39.010;2022-08-21T11:56:11;35.75;53.86
65396;HTU21D;52004;45.136;39.010;2022-08-21T11:58:45;35.80;53.86
65396;HTU21D;52004;45.136;39.010;2022-08-21T12:01:27;35.86;53.79
65396;HTU21D;52004;45.136;39.010;2022-08-21T12:04:30;35.87;53.61
65396;HTU21D;52004;45.136;39.010;2022-08-21T12:07:10;35.83;53.47
65396;HTU21D;52004;45.136;39.010;2022-08-21T12:09:36;35.77;53.50
65396;HTU21D;52004;45.136;39.010;2022-08-21T12:12:13;35.73;53.43
65396;HTU21D;52004;45.136;39.010;2022-08-21T12:14:48;35.68;53.43
65396;HTU21D;52004;45.136;39.010;2022-08-21T12:17:19;35.68;53.48
65396;HTU21D;52004;45.136;39.010;2022-08-21T12:19:56;35.68;53.45
65396;HTU21D;52004;45.136;39.010;2022-08-21T12:22:22;35.69;53.42
65396;HTU21D;52004;45.136;39.010;2022-08-21T12:24:48;35.69;53.43
65396;HTU21D;52004;45.136;39.010;2022-08-21T12:27:30;35.69;53.39
65396;HTU21D;52004;45.136;39.010;2022-08-21T12:30:18;35.71;53.37
65396;HTU21D;52004;45.136;39.010;2022-08-21T12:32:45;35.74;53.34
65396;HTU21D;52004;45.136;39.010;2022-08-21T12:35:40;35.79;53.33
65396;HTU21D;52004;45.136;39.010;2022-08-21T12:38:17;0.00;53.23
65396;HTU21D;52004;45.136;39.010;2022-08-21T12:41:06;35.85;53.20
65396;HTU21D;52004;45.136;39.010;2022-08-21T12:43:31;35.86;53.12
65396;HTU21D;52004;45.136;39.010;2022-08-21T12:45:59;35.84;53.02
65396;HTU21D;52004;45.136;39.010;2022-08-21T12:48:27;0.00;53.05
65396;HTU21D;52004;45.136;39.010;2022-08-21T12:50:56;35.71;52.94
65396;HTU21D;52004;45.136;39.010;2022-08-21T12:53:33;35.65;53.03
65396;HTU21D;52004;45.136;39.010;2022-08-21T12:56:02;35.63;53.08
65396;HTU21D;52004;45.136;39.010;2022-08-21T12:58:29;35.65;53.01
65396;HTU21D;52004;45.136;39.010;2022-08-21T13:01:00;35.63;53.01
65396;HTU21D;52004;45.136;39.010;2022-08-21T13:03:27;35.63;52.97
65396;HTU21D;52004;45.136;39.010;2022-08-21T13:05:53;35.59;52.91
65396;HTU21D;52004;45.136;39.010;2022-08-21T13:08:20;35.53;52.90
65396;HTU21D;52004;45.136;39.010;2022-08-21T13:10:47;35.51;52.94
65396;HTU21D;52004;45.136;39.010;2022-08-21T13:13:20;35.51;52.98
65396;HTU21D;52004;45.136;39.010;2022-08-21T13:15:46;35.52;52.93
65396;HTU21D;52004;45.136;39.010;2022-08-21T13:18:24;35.50;52.90
65396;HTU21D;52004;45.136;39.010;2022-08-21T13:44:57;35.14;52.91
65396;HTU21D;52004;45.136;39.010;2022-08-21T13:47:23;35.09;52.82
65396;HTU21D;52004;45.136;39.010;2022-08-21T13:49:50;35.06;52.76
65396;HTU21D;52004;45.136;39.010;2022-08-21T13:52:18;35.00;52.67
65396;HTU21D;52004;45.136;39.010;2022-08-21T13:54:51;34.92;52.62
65396;HTU21D;52004;45.136;39.010;2022-08-21T13:57:18;34.83;52.65
65396;HTU21D;52004;45.136;39.010;2022-08-21T13:59:44;34.75;52.70
65396;HTU21D;52004;45.136;39.010;2022-08-21T14:02:13;34.65;52.69
65396;HTU21D;52004;45.136;39.010;2022-08-21T14:04:43;34.60;52.74
65396;HTU21D;52004;45.136;39.010;2022-08-21T14:07:17;34.53;52.74
65396;HTU21D;52004;45.136;39.010;2022-08-21T14:09:44;34.48;52.83
65396;HTU21D;52004;45.136;39.010;2022-08-21T14:12:24;34.48;52.85
65396;HTU21D;52004;45.136;39.010;2022-08-21T14:14:53;34.45;52.77
65396;HTU21D;52004;45.136;39.010;2022-08-21T14:17:27;0.00;52.78
65396;HTU21D;52004;45.136;39.010;2022-08-21T14:19:54;34.41;52.74
65396;HTU21D;52004;45.136;39.010;2022-08-21T14:22:40;34.39;52.70
65396;HTU21D;52004;45.136;39.010;2022-08-21T14:25:08;34.36;52.70
65396;HTU21D;52004;45.136;39.010;2022-08-21T14:27:42;0.00;52.69
65396;HTU21D;52004;45.136;39.010;2022-08-21T14:30:10;34.26;52.69
65396;HTU21D;52004;45.136;39.010;2022-08-21T14:32:38;34.20;52.72
65396;HTU21D;52004;45.136;39.010;2022-08-21T14:35:04;34.15;52.65
65396;HTU21D;52004;45.136;39.010;2022-08-21T14:37:30;34.06;52.82
65396;HTU21D;52004;45.136;39.010;2022-08-21T14:39:56;34.01;52.88
65396;HTU21D;52004;45.136;39.010;2022-08-21T14:42:22;33.99;52.96
65396;HTU21D;52004;45.136;39.010;2022-08-21T14:44:49;33.94;52.99
65396;HTU21D;52004;45.136;39.010;2022-08-21T14:47:15;33.91;53.03
65396;HTU21D;52004;45.136;39.010;2022-08-21T14:49:41;33.89;53.07
65396;HTU21D;52004;45.136;39.010;2022-08-21T14:52:08;33.83;53.11
65396;HTU21D;52004;45.136;39.010;2022-08-21T14:57:48;33.75;53.27
65396;HTU21D;52004;45.136;39.010;2022-08-21T15:00:17;33.73;53.31
65396;HTU21D;52004;45.136;39.010;2022-08-21T15:02:43;33.71;53.33
65396;HTU21D;52004;45.136;39.010;2022-08-21T15:05:09;33.70;53.30
65396;HTU21D;52004;45.136;39.010;2022-08-21T15:07:35;33.66;53.27
65396;HTU21D;52004;45.136;39.010;2022-08-21T15:10:02;33.61;53.26
65396;HTU21D;52004;45.136;39.010;2022-08-21T15:12:28;33.55;53.26
65396;HTU21D;52004;45.136;39.010;2022-08-21T15:14:54;33.50;53.24
65396;HTU21D;52004;45.136;39.010;2022-08-21T15:17:20;33.48;53.23
65396;HTU21D;52004;45.136;39.010;2022-08-21T15:19:46;33.46;53.17
65396;HTU21D;52004;45.136;39.010;2022-08-21T15:22:12;0.00;53.16
65396;HTU21D;52004;45.136;39.010;2022-08-21T15:24:38;33.36;53.11
65396;HTU21D;52004;45.136;39.010;2022-08-21T15:27:04;33.31;53.13
65396;HTU21D;52004;45.136;39.010;2022-08-21T15:29:32;33.26;53.14
65396;HTU21D;52004;45.136;39.010;2022-08-21T15:32:02;33.20;53.12
65396;HTU21D;52004;45.136;39.010;2022-08-21T15:34:29;33.15;53.14
65396;HTU21D;52004;45.136;39.010;2022-08-21T15:36:56;33.06;53.16
65396;HTU21D;52004;45.136;39.010;2022-08-21T15:39:22;32.99;53.17
65396;HTU21D;52004;45.136;39.010;2022-08-21T15:41:48;32.90;53.23
65396;HTU21D;52004;45.136;39.010;2022-08-21T15:44:14;0.00;53.26
65396;HTU21D;52004;45.136;39.010;2022-08-21T15:58:20;32.43;53.49
65396;HTU21D;52004;45.136;39.010;2022-08-21T16:00:47;32.35;53.56
65396;HTU21D;52004;45.136;39.010;2022-08-21T16:17:15;31.93;53.78
65396;HTU21D;52004;45.136;39.010;2022-08-21T16:19:41;31.87;53.83
65396;HTU21D;52004;45.136;39.010;2022-08-21T16:22:07;31.80;53.89
65396;HTU21D;52004;45.136;39.010;2022-08-21T16:24:33;31.72;53.96
65396;HTU21D;52004;45.136;39.010;2022-08-21T16:27:01;31.66;54.00
65396;HTU21D;52004;45.136;39.010;2022-08-21T16:29:28;31.58;54.04
65396;HTU21D;52004;45.136;39.010;2022-08-21T16:31:58;31.52;54.09
65396;HTU21D;52004;45.136;39.010;2022-08-21T16:34:23;31.46;54.14
65396;HTU21D;52004;45.136;39.010;2022-08-21T16:36:50;31.38;54.20
65396;HTU21D;52004;45.136;39.010;2022-08-21T16:39:16;31.31;54.26
65396;HTU21D;52004;45.136;39.010;2022-08-21T16:41:42;31.24;54.33
65396;HTU21D;52004;45.136;39.010;2022-08-21T16:44:09;31.20;54.38
65396;HTU21D;52004;45.136;39.010;2022-08-21T16:46:36;31.13;54.42
65396;HTU21D;52004;45.136;39.010;2022-08-21T16:49:03;31.08;54.46
65396;HTU21D;52004;45.136;39.010;2022-08-21T16:51:29;31.01;54.51
65396;HTU21D;52004;45.136;39.010;2022-08-21T16:53:57;30.96;54.57
65396;HTU21D;52004;45.136;39.010;2022-08-21T16:56:23;30.89;54.62
65396;HTU21D;52004;45.136;39.010;2022-08-21T16:58:50;30.81;54.70
65396;HTU21D;52004;45.136;39.010;2022-08-21T17:01:19;30.76;54.79
65396;HTU21D;52004;45.136;39.010;2022-08-21T17:03:46;30.72;54.83
65396;HTU21D;52004;45.136;39.010;2022-08-21T17:06:13;30.67;54.87
65396;HTU21D;52004;45.136;39.010;2022-08-21T17:08:39;0.00;54.91